Time;durP1;ratioP1;P1;durP2;ratioP2;P2;SDS_P1;SDS_P2;PMS_P1;PMS_P2;Temp;Humidity;BMP_temperature;BMP_pressure;BME280_temperature;BME280_humidity;BME280_pressure;Samples;Min_cycle;Max_cycle;Signal;HPM_P1;HPM_P2
2022/08/08 00:00:20;;;;;;;5.70;4.13;;;;;;;-140.72;100.00;52394.91;5032900;28;20034;-66
2022/08/08 00:03:00;;;;;;;5.88;3.70;;;;;;;-140.72;100.00;52362.44;5019656;28;20036;-67
2022/08/08 00:05:38;;;;;;;9.13;5.20;;;;;;;-140.72;100.00;52378.69;5030742;28;20089;-67
2022/08/08 00:08:17;;;;;;;5.88;3.63;;;;;;;-140.72;100.00;52398.97;5022879;28;20124;-65
2022/08/08 00:11:01;;;;;;;6.35;4.68;;;;;;;-140.72;100.00;52378.69;5025606;28;20089;-67
2022/08/08 00:13:48;;;;;;;8.05;4.95;;;;;;;-140.72;100.00;52366.50;5013893;28;20469;-67
2022/08/08 00:16:50;;;;;;;6.35;4.43;;;;;;;-140.72;100.00;52390.84;5031466;28;20132;-68
2022/08/08 00:19:26;;;;;;;8.30;4.55;;;;;;;-140.72;100.00;52376.66;5010231;28;20056;-67
2022/08/08 00:22:17;;;;;;;6.10;4.47;;;;;;;-140.72;100.00;52362.44;5018947;28;20056;-68
2022/08/08 00:24:48;;;;;;;7.72;5.15;;;;;;;-140.72;100.00;52386.81;5030224;28;20068;-67
2022/08/08 00:27:17;;;;;;;6.40;4.13;;;;;;;-140.72;100.00;52401.00;5029867;28;20033;-67
2022/08/08 00:30:04;;;;;;;6.75;4.00;;;;;;;-140.72;100.00;52411.16;5030626;28;20210;-67
2022/08/08 00:32:41;;;;;;;6.18;3.95;;;;;;;-140.72;100.00;52403.03;5018874;28;20082;-67
2022/08/08 00:35:31;;;;;;;7.45;4.10;;;;;;;-140.72;100.00;52372.59;5019706;28;20036;-66
2022/08/08 00:38:11;;;;;;;5.80;3.83;;;;;;;-140.72;100.00;52439.56;5027135;28;20399;-66
2022/08/08 00:41:21;;;;;;;6.00;4.80;;;;;;;-140.72;100.00;52356.38;5025130;28;20108;-67
2022/08/08 00:43:50;;;;;;;;;;;;;;;-140.72;100.00;52413.19;5014642;28;20048;-67
2022/08/08 00:46:39;;;;;;;9.90;4.93;;;;;;;-140.72;100.00;52394.91;5026509;28;19909;-67
2022/08/08 00:49:29;;;;;;;5.82;4.25;;;;;;;-140.72;100.00;52405.06;5024692;28;20171;-67
2022/08/08 00:52:06;;;;;;;6.85;4.20;;;;;;;-140.72;100.00;52372.59;5021773;28;20041;-67
2022/08/08 00:54:57;;;;;;;6.00;3.92;;;;;;;-140.72;100.00;52378.69;5017039;28;20179;-67
2022/08/08 00:57:39;;;;;;;5.43;4.22;;;;;;;-140.72;100.00;52396.94;5030156;28;20548;-66
2022/08/08 01:00:12;;;;;;;7.10;4.18;;;;;;;-140.72;100.00;52382.75;5031481;28;20093;-67
2022/08/08 01:02:56;;;;;;;6.18;3.92;;;;;;;-140.72;100.00;52390.84;5029103;28;20343;-67
2022/08/08 01:05:31;;;;;;;6.85;4.07;;;;;;;-140.72;100.00;52429.41;5033270;28;20031;-67
2022/08/08 01:08:38;;;;;;;6.05;3.30;;;;;;;-140.72;100.00;52403.03;5026968;28;20367;-67
2022/08/08 01:11:22;;;;;;;7.00;4.00;;;;;;;-140.72;100.00;52356.38;5034393;28;20030;-68
2022/08/08 01:14:25;;;;;;;5.63;3.95;;;;;;;-140.72;100.00;52403.03;5026744;28;20033;-66
2022/08/08 01:17:18;;;;;;;7.40;3.97;;;;;;;-140.72;100.00;52346.22;5031902;28;20026;-68
2022/08/08 01:20:05;;;;;;;6.03;3.58;;;;;;;-140.72;100.00;52409.13;5029936;28;20095;-67
2022/08/08 01:22:39;;;;;;;6.65;4.00;;;;;;;-140.72;100.00;52407.09;5025896;28;20076;-67
2022/08/08 01:25:42;;;;;;;11.40;3.67;;;;;;;-140.72;100.00;52407.09;5033844;28;20025;-66
2022/08/08 01:28:45;;;;;;;4.75;3.13;;;;;;;-140.72;100.00;52411.16;5028853;28;20063;-68
2022/08/08 01:31:36;;;;;;;4.05;3.00;;;;;;;-140.72;100.00;52396.94;5027372;28;20037;-66
2022/08/08 01:34:28;;;;;;;5.20;3.50;;;;;;;-140.72;100.00;52459.84;5027406;28;20091;-67
2022/08/08 01:37:32;;;;;;;5.53;4.07;;;;;;;-140.72;100.00;52394.91;5031969;28;20021;-67
2022/08/08 01:40:32;;;;;;;4.72;3.63;;;;;;;-140.72;100.00;52392.88;5029515;28;20091;-67
2022/08/08 01:43:20;;;;;;;5.00;3.97;;;;;;;-140.72;100.00;52451.72;5028337;28;20460;-66
2022/08/08 01:46:04;;;;;;;4.88;3.63;;;;;;;-140.72;100.00;52427.38;5028789;28;20038;-68
2022/08/08 01:49:01;;;;;;;6.00;3.50;;;;;;;-140.72;100.00;52388.84;5032956;28;20033;-67
2022/08/08 01:51:57;;;;;;;6.03;3.00;;;;;;;-140.72;100.00;52417.25;5019889;28;20161;-68
2022/08/08 01:54:41;;;;;;;4.43;3.35;;;;;;;-140.72;100.00;52376.66;5012364;28;20373;-67
2022/08/08 01:57:38;;;;;;;4.47;3.22;;;;;;;-140.72;100.00;52370.56;5030096;28;20033;-66
2022/08/08 02:00:09;;;;;;;6.70;3.67;;;;;;;-140.72;100.00;52392.88;5032376;28;20390;-67
2022/08/08 02:03:04;;;;;;;5.18;3.88;;;;;;;-140.72;100.00;52427.38;5026874;28;20203;-67
2022/08/08 02:05:57;;;;;;;7.18;3.65;;;;;;;-140.72;100.00;52431.44;5034319;28;20033;-67
2022/08/08 02:09:00;;;;;;;4.70;2.97;;;;;;;-140.72;100.00;52435.50;5030273;28;20460;-67
2022/08/08 02:11:32;;;;;;;5.75;3.22;;;;;;;-140.72;100.00;52435.50;5018662;28;20041;-67
2022/08/08 02:14:41;;;;;;;5.55;3.55;;;;;;;-140.72;100.00;52423.31;5027668;28;20018;-67
2022/08/08 02:17:23;;;;;;;5.00;3.35;;;;;;;-140.72;100.00;52461.88;5008430;28;20133;-67
2022/08/08 02:19:59;;;;;;;10.85;4.03;;;;;;;-140.72;100.00;52433.47;5005888;28;20045;-67
2022/08/08 02:22:42;;;;;;;4.60;3.47;;;;;;;-140.72;100.00;52474.06;5023363;28;20033;-67
2022/08/08 02:25:25;;;;;;;4.22;3.42;;;;;;;-140.72;100.00;52433.47;5027407;28;20029;-68
2022/08/08 02:28:04;;;;;;;4.30;3.30;;;;;;;-140.72;100.00;52433.47;5032623;28;20025;-67
2022/08/08 02:31:03;;;;;;;4.70;2.47;;;;;;;-140.72;100.00;52405.06;5023700;28;20029;-66
2022/08/08 02:33:28;;;;;;;5.30;3.57;;;;;;;-140.72;100.00;52423.31;5094539;22;20349;-65
2022/08/08 02:36:37;;;;;;;5.60;3.30;;;;;;;-140.72;100.00;52421.28;5012245;28;20299;-66
2022/08/08 02:39:44;;;;;;;4.40;2.97;;;;;;;-140.72;100.00;52431.44;5005313;28;20022;-66
2022/08/08 02:42:47;;;;;;;4.22;3.40;;;;;;;-140.72;100.00;52390.84;5020639;28;20101;-66
2022/08/08 02:45:33;;;;;;;6.07;3.55;;;;;;;-140.72;100.00;52470.00;5012169;28;20113;-66
2022/08/08 02:48:04;;;;;;;5.75;3.17;;;;;;;-140.72;100.00;52431.44;5012953;28;20034;-66
2022/08/08 02:50:47;;;;;;;5.50;3.58;;;;;;;-140.72;100.00;52382.75;5008715;28;20033;-66
2022/08/08 02:53:45;;;;;;;5.57;3.53;;;;;;;-140.72;100.00;52437.53;5007143;28;20398;-66
2022/08/08 02:56:31;;;;;;;5.53;3.85;;;;;;;-140.72;100.00;52425.34;5007877;28;20100;-67
2022/08/08 02:59:41;;;;;;;5.57;4.15;;;;;;;-140.72;100.00;52427.38;5009469;28;20030;-67
2022/08/08 03:02:25;;;;;;;5.95;4.50;;;;;;;-140.72;100.00;52435.50;5006661;28;20124;-66
2022/08/08 03:05:28;;;;;;;6.53;4.50;;;;;;;-140.72;100.00;52411.16;5007930;28;20620;-66
2022/08/08 03:07:56;;;;;;;7.45;4.78;;;;;;;-140.72;100.00;52435.50;5000943;28;20046;-66
2022/08/08 03:10:43;;;;;;;9.23;5.47;;;;;;;-140.72;100.00;52439.56;5007019;28;20026;-67
2022/08/08 03:13:30;;;;;;;6.85;3.88;;;;;;;-140.72;100.00;52417.25;5012433;28;20034;-66
2022/08/08 03:16:16;;;;;;;5.88;3.53;;;;;;;-140.72;100.00;52437.53;5010994;28;20038;-67
2022/08/08 03:18:53;;;;;;;6.78;3.80;;;;;;;-140.72;100.00;52447.69;4989299;28;20093;-66
2022/08/08 03:21:18;;;;;;;6.50;4.65;;;;;;;-140.72;100.00;52405.06;5009633;28;20026;-67
2022/08/08 03:23:43;;;;;;;8.13;3.70;;;;;;;-140.72;100.00;52457.81;5003891;28;20036;-67
2022/08/08 03:26:09;;;;;;;6.65;3.88;;;;;;;-140.72;100.00;52407.09;5011366;28;20030;-67
2022/08/08 03:28:40;;;;;;;6.10;4.40;;;;;;;-140.72;100.00;52455.78;5006998;28;20091;-67
2022/08/08 03:33:50;;;;;;;6.43;3.97;;;;;;;-140.72;100.00;52467.97;5001869;28;20149;-67
2022/08/08 03:36:16;;;;;;;5.45;4.53;;;;;;;-140.72;100.00;52443.63;4991376;28;20038;-67
2022/08/08 03:38:47;;;;;;;6.10;4.57;;;;;;;-140.72;100.00;52445.66;4994246;28;20486;-67
2022/08/08 03:41:12;;;;;;;5.22;3.38;;;;;;;-140.72;100.00;52465.94;4994014;28;20466;-67
2022/08/08 03:43:37;;;;;;;6.13;4.03;;;;;;;-140.72;100.00;52445.66;4994153;28;20034;-67
2022/08/08 03:46:06;;;;;;;6.65;3.60;;;;;;;-140.72;100.00;52439.56;4992604;28;20117;-67
2022/08/08 03:48:31;;;;;;;8.23;3.65;;;;;;;-140.72;100.00;52463.91;4993984;28;20044;-66
2022/08/08 03:50:57;;;;;;;6.82;3.97;;;;;;;-140.72;100.00;52459.84;4994971;28;20381;-67
2022/08/08 03:53:24;;;;;;;5.50;3.90;;;;;;;-140.72;100.00;52467.97;4993806;28;20026;-67
2022/08/08 03:55:50;;;;;;;6.45;3.88;;;;;;;-140.72;100.00;52421.28;4996044;28;20034;-67
2022/08/08 03:58:21;;;;;;;6.30;4.15;;;;;;;-140.72;100.00;52461.88;5003862;28;20031;-67
2022/08/08 04:00:55;;;;;;;7.97;4.13;;;;;;;-140.72;100.00;52467.97;4993335;28;20129;-67
2022/08/08 04:03:22;;;;;;;6.18;3.83;;;;;;;-140.72;100.00;52453.75;4991540;28;20106;-67
2022/08/08 04:05:48;;;;;;;5.70;4.28;;;;;;;-140.72;100.00;52405.06;4994649;28;20097;-67
2022/08/08 04:08:21;;;;;;;6.05;4.40;;;;;;;-140.72;100.00;52443.63;4993426;28;20030;-67
2022/08/08 04:10:49;;;;;;;5.25;4.38;;;;;;;-140.72;100.00;52453.75;4992685;28;20022;-67
2022/08/08 04:13:15;;;;;;;5.70;4.10;;;;;;;-140.72;100.00;52439.56;5008676;28;20525;-66
2022/08/08 04:15:40;;;;;;;5.90;3.47;;;;;;;-140.72;100.00;52447.69;4993773;28;20053;-67
2022/08/08 04:18:06;;;;;;;10.88;4.70;;;;;;;-140.72;100.00;52439.56;4995357;28;20034;-66
2022/08/08 04:20:31;;;;;;;5.60;4.00;;;;;;;-140.72;100.00;52439.56;4993486;28;20038;-67
2022/08/08 04:22:57;;;;;;;6.13;3.72;;;;;;;-140.72;100.00;52480.16;4993529;28;20038;-67
2022/08/08 04:25:22;;;;;;;7.25;4.47;;;;;;;-140.72;100.00;52482.16;4993418;28;20554;-67
2022/08/08 04:27:48;;;;;;;5.07;3.47;;;;;;;-140.72;100.00;52457.81;4992236;28;20031;-66
2022/08/08 04:30:13;;;;;;;5.70;3.53;;;;;;;-140.72;100.00;52433.47;4993509;28;20367;-67
2022/08/08 04:32:38;;;;;;;6.43;4.35;;;;;;;-140.72;100.00;52443.63;4996809;28;20034;-67
2022/08/08 04:35:04;;;;;;;5.85;3.60;;;;;;;-140.72;100.00;52467.97;5000960;28;20050;-66
2022/08/08 04:37:30;;;;;;;5.38;4.30;;;;;;;-140.72;100.00;52449.72;4997936;28;20033;-67
2022/08/08 04:39:56;;;;;;;7.50;4.47;;;;;;;-140.72;100.00;52486.22;4995983;28;20053;-67
2022/08/08 04:42:22;;;;;;;7.70;3.63;;;;;;;-140.72;100.00;52492.31;4995693;28;20061;-67
2022/08/08 04:44:48;;;;;;;5.45;3.88;;;;;;;-140.72;100.00;52431.44;4996823;28;20363;-67
2022/08/08 04:47:14;;;;;;;4.90;3.60;;;;;;;-140.72;100.00;52455.78;4995593;28;20113;-66
2022/08/08 04:49:39;;;;;;;5.38;3.70;;;;;;;-140.72;100.00;52455.78;5002612;28;20026;-67
2022/08/08 04:52:05;;;;;;;4.13;2.83;;;;;;;-140.72;100.00;52455.78;4996844;28;20060;-66
2022/08/08 04:54:30;;;;;;;4.75;3.97;;;;;;;-140.72;100.00;52461.88;4996507;28;20080;-66
2022/08/08 04:56:55;;;;;;;6.18;4.13;;;;;;;-140.72;100.00;52417.25;4996866;28;20038;-67
2022/08/08 04:59:21;;;;;;;6.68;4.25;;;;;;;-140.72;100.00;52455.78;4994804;28;20061;-66
2022/08/08 05:01:46;;;;;;;8.20;4.55;;;;;;;-140.72;100.00;52453.75;4995294;28;20026;-67
2022/08/08 05:04:11;;;;;;;8.52;3.80;;;;;;;-140.72;100.00;52447.69;4994809;28;20042;-67
2022/08/08 05:06:37;;;;;;;5.82;4.10;;;;;;;-140.72;100.00;52492.31;4999792;28;20088;-66
2022/08/08 05:09:03;;;;;;;6.18;3.90;;;;;;;-140.72;100.00;52427.38;4993543;28;20092;-69
2022/08/08 05:11:29;;;;;;;5.40;4.15;;;;;;;-140.72;100.00;52413.19;4997224;28;20445;-69
2022/08/08 05:13:54;;;;;;;5.90;3.75;;;;;;;-140.72;100.00;52431.44;4996008;28;20049;-68
2022/08/08 05:16:21;;;;;;;8.43;4.50;;;;;;;-140.72;100.00;52423.31;4995735;28;20485;-70
2022/08/08 05:18:46;;;;;;;5.20;4.03;;;;;;;-140.72;100.00;52413.19;4996302;28;20033;-69
2022/08/08 05:21:12;;;;;;;5.22;4.15;;;;;;;-140.72;100.00;52431.44;5009612;28;20381;-69
2022/08/08 05:23:38;;;;;;;5.53;3.75;;;;;;;-140.72;100.00;52411.16;5000388;28;20488;-68
2022/08/08 05:26:03;;;;;;;5.50;4.28;;;;;;;-140.72;100.00;52417.25;5018890;28;20034;-70
2022/08/08 05:28:29;;;;;;;5.78;4.32;;;;;;;-140.72;100.00;52382.75;5005435;28;20030;-68
2022/08/08 05:30:55;;;;;;;5.63;3.78;;;;;;;-140.72;100.00;52398.97;5007185;28;20050;-69
2022/08/08 05:33:20;;;;;;;5.80;3.42;;;;;;;-140.72;100.00;52467.97;5009309;28;20035;-72
2022/08/08 05:35:46;;;;;;;6.70;4.00;;;;;;;-140.72;100.00;52407.09;5014261;28;20038;-72
2022/08/08 05:38:17;;;;;;;5.93;4.22;;;;;;;-140.72;100.00;52384.78;5001673;28;20094;-69
2022/08/08 05:40:52;;;;;;;5.63;3.75;;;;;;;-140.72;100.00;52398.97;4997909;28;20030;-69
2022/08/08 05:43:30;;;;;;;4.80;3.55;;;;;;;-140.72;100.00;52417.25;4994576;28;20026;-68
2022/08/08 05:45:58;;;;;;;4.70;3.35;;;;;;;-140.72;100.00;52421.28;4995641;28;20053;-68
2022/08/08 05:48:24;;;;;;;6.45;4.07;;;;;;;-140.72;100.00;52376.66;5015943;28;20121;-68
2022/08/08 05:50:49;;;;;;;5.55;3.75;;;;;;;-140.72;100.00;52411.16;4998859;28;20061;-68
2022/08/08 05:53:16;;;;;;;6.28;3.83;;;;;;;-140.72;100.00;52449.72;4998425;28;20027;-67
2022/08/08 05:55:43;;;;;;;6.35;3.60;;;;;;;-140.72;100.00;52425.34;4997264;28;20398;-68
2022/08/08 05:58:12;;;;;;;6.00;3.38;;;;;;;-140.72;100.00;52386.81;5014161;28;20026;-68
2022/08/08 06:00:38;;;;;;;4.60;3.30;;;;;;;-140.72;100.00;52427.38;5004183;28;20022;-70
2022/08/08 06:03:10;;;;;;;3.50;2.72;;;;;;;-140.72;100.00;52411.16;5001445;28;20347;-67
2022/08/08 06:05:43;;;;;;;5.50;3.13;;;;;;;-140.72;100.00;52419.28;4999313;28;20093;-69
2022/08/08 06:08:08;;;;;;;5.35;2.80;;;;;;;-140.72;100.00;52370.56;5026592;28;20050;-69
2022/08/08 06:10:36;;;;;;;4.30;3.08;;;;;;;-140.72;100.00;52398.97;5023956;28;20027;-69
2022/08/08 06:13:01;;;;;;;5.88;3.15;;;;;;;-140.72;100.00;52398.97;5006601;28;20042;-71
2022/08/08 06:15:28;;;;;;;5.10;2.88;;;;;;;-140.72;100.00;52350.28;5006329;28;20041;-69
2022/08/08 06:17:56;;;;;;;2.78;2.10;;;;;;;-140.72;100.00;52374.63;5003554;28;20077;-70
2022/08/08 06:20:22;;;;;;;4.78;2.53;;;;;;;-140.72;100.00;52407.09;5012906;28;20037;-69
2022/08/08 06:22:47;;;;;;;2.60;2.15;;;;;;;-140.72;100.00;52398.97;4997702;28;20027;-69
2022/08/08 06:25:12;;;;;;;8.40;2.20;;;;;;;-140.72;100.00;52354.34;5009742;28;20500;-67
2022/08/08 06:27:37;;;;;;;3.75;2.33;;;;;;;-140.72;100.00;52376.66;5009988;28;20030;-70
2022/08/08 06:30:07;;;;;;;5.05;1.85;;;;;;;-140.72;100.00;52354.34;4999665;28;20037;-67
2022/08/08 06:32:37;;;;;;;;;;;;;;;-140.72;100.00;52356.38;4995393;28;20042;-65
2022/08/08 06:35:04;;;;;;;3.08;1.63;;;;;;;-140.72;100.00;52350.28;4984115;28;19918;-64
2022/08/08 06:37:34;;;;;;;5.50;1.70;;;;;;;-140.72;100.00;52344.19;4996414;28;20022;-66
2022/08/08 06:40:04;;;;;;;3.78;1.95;;;;;;;-140.72;100.00;52327.97;5001106;28;20398;-68
2022/08/08 06:42:36;;;;;;;3.03;2.00;;;;;;;-140.72;100.00;52360.44;4998021;28;20037;-65
2022/08/08 06:45:04;;;;;;;2.38;1.45;;;;;;;-140.72;100.00;52307.66;5002017;28;20022;-71
2022/08/08 06:47:29;;;;;;;1.80;1.35;;;;;;;-140.72;100.00;52358.41;5006076;28;20042;-69
2022/08/08 06:49:55;;;;;;;3.72;1.60;;;;;;;-140.72;100.00;52352.31;5000128;28;20030;-71
2022/08/08 06:52:21;;;;;;;6.05;1.50;;;;;;;-140.72;100.00;52340.13;4994776;28;20505;-69
2022/08/08 06:54:47;;;;;;;2.75;1.10;;;;;;;-140.72;100.00;52366.50;4990452;28;20117;-69
2022/08/08 06:57:12;;;;;;;4.20;1.50;;;;;;;-140.72;100.00;52338.09;4993089;28;20072;-67
2022/08/08 06:59:38;;;;;;;1.92;1.17;;;;;;;-140.72;100.00;52327.97;4993398;28;20476;-68
2022/08/08 07:02:04;;;;;;;2.58;1.30;;;;;;;-140.72;100.00;52317.81;4991585;28;20034;-69
2022/08/08 07:04:43;;;;;;;3.90;1.42;;;;;;;-140.72;100.00;52350.28;4992720;28;20034;-69
2022/08/08 07:07:10;;;;;;;1.92;1.15;;;;;;;-140.72;100.00;52342.16;4993433;28;20069;-77
2022/08/08 07:09:49;;;;;;;1.88;1.20;;;;;;;-140.72;100.00;52360.44;4991818;28;20145;-75
2022/08/08 07:12:30;;;;;;;2.53;0.88;;;;;;;-140.72;100.00;52344.19;4984006;28;20486;-67
2022/08/08 07:15:04;;;;;;;3.15;0.90;;;;;;;-140.72;100.00;52334.03;4987116;28;20053;-70
2022/08/08 07:17:42;;;;;;;0.82;0.55;;;;;;;-140.72;100.00;52309.69;4990952;28;20121;-68
2022/08/08 07:20:09;;;;;;;4.13;1.08;;;;;;;-140.72;100.00;52334.03;4988412;28;20418;-69
2022/08/08 07:23:02;;;;;;;1.10;0.77;;;;;;;-140.72;100.00;52340.13;4995920;28;20458;-69
2022/08/08 07:25:31;;;;;;;1.85;1.00;;;;;;;-140.72;100.00;52336.06;4996048;28;20041;-69
2022/08/08 07:28:25;;;;;;;1.42;0.90;;;;;;;-140.72;100.00;52299.56;4994578;28;20410;-69
2022/08/08 07:30:51;;;;;;;2.70;0.80;;;;;;;-140.72;100.00;52297.53;4985305;28;20461;-71
2022/08/08 07:33:24;;;;;;;1.58;0.90;;;;;;;-140.72;100.00;52313.75;4992514;28;20054;-71
2022/08/08 07:35:51;;;;;;;2.00;0.82;;;;;;;-140.72;100.00;52265.06;4991737;28;20026;-68
2022/08/08 07:38:17;;;;;;;2.75;0.63;;;;;;;-140.72;100.00;52303.59;4993222;28;20049;-67
2022/08/08 07:40:45;;;;;;;1.83;0.47;;;;;;;-140.72;100.00;52305.63;4993349;28;20382;-67
2022/08/08 07:43:11;;;;;;;2.20;0.82;;;;;;;-140.72;100.00;52269.13;4993186;28;20030;-67
2022/08/08 07:45:37;;;;;;;1.30;0.80;;;;;;;-140.72;96.45;52311.72;4992964;28;20537;-67
2022/08/08 07:48:03;;;;;;;3.70;0.70;;;;;;;-140.72;91.74;52265.06;4993344;28;20109;-67
2022/08/08 07:50:28;;;;;;;2.13;0.73;;;;;;;-140.72;86.99;52252.88;4992118;28;20065;-67
2022/08/08 07:52:58;;;;;;;2.20;0.65;;;;;;;-140.72;85.16;52256.94;4993463;28;20429;-65
2022/08/08 07:55:25;;;;;;;2.22;0.90;;;;;;;-140.72;79.32;52252.88;4992708;28;20022;-65
2022/08/08 07:58:20;;;;;;;1.05;0.60;;;;;;;-140.72;73.97;52236.66;4997491;28;20098;-65
2022/08/08 08:00:57;;;;;;;4.05;0.70;;;;;;;-140.72;71.51;52210.28;4993184;28;20034;-65
2022/08/08 08:03:50;;;;;;;4.60;1.00;;;;;;;-140.72;69.55;52224.47;4994032;28;20026;-66
2022/08/08 08:06:18;;;;;;;2.03;0.75;;;;;;;-140.72;65.15;52192.00;5009233;28;20030;-66
2022/08/08 08:09:02;;;;;;;1.70;0.73;;;;;;;-140.72;58.66;52192.00;5002049;28;20026;-67
2022/08/08 08:11:31;;;;;;;2.08;0.75;;;;;;;-140.72;54.14;52171.72;4996571;28;20022;-66
2022/08/08 08:14:02;;;;;;;1.67;0.60;;;;;;;-140.72;41.24;52131.16;4999192;28;20065;-66
2022/08/08 08:16:30;;;;;;;4.00;0.90;;;;;;;-140.72;27.92;52161.56;4998684;28;20042;-67
2022/08/08 08:19:08;;;;;;;2.05;0.88;;;;;;;-140.72;14.46;52127.09;4999138;28;20022;-68
2022/08/08 08:21:41;;;;;;;1.52;0.45;;;;;;;-140.72;0.00;52102.75;5002992;28;20045;-67
2022/08/08 08:24:07;;;;;;;0.77;0.30;;;;;;;-140.72;0.00;52147.38;4997971;28;20034;-66
2022/08/08 08:26:33;;;;;;;1.10;0.50;;;;;;;-140.72;0.00;52135.19;4997797;28;20026;-66
2022/08/08 08:28:58;;;;;;;3.05;0.50;;;;;;;-140.72;0.00;52163.59;4998574;28;20018;-67
2022/08/08 08:31:24;;;;;;;2.15;0.65;;;;;;;-140.72;0.00;52171.72;5003894;28;20033;-68
2022/08/08 08:33:50;;;;;;;2.95;0.63;;;;;;;-140.72;0.00;52163.59;4999708;28;20050;-67
2022/08/08 08:36:17;;;;;;;2.33;0.70;;;;;;;-140.72;0.00;52163.59;4987720;28;20052;-66
2022/08/08 08:38:43;;;;;;;1.88;0.43;;;;;;;-140.72;0.00;52189.97;4994753;28;20026;-65
2022/08/08 08:41:13;;;;;;;0.88;0.40;;;;;;;-140.72;0.00;52155.50;4995675;28;20033;-65
2022/08/08 08:43:38;;;;;;;;;;;;;;;-140.72;0.00;52110.84;4995468;28;20038;-65
2022/08/08 08:46:07;;;;;;;1.10;0.40;;;;;;;-140.72;0.00;52104.75;4995507;28;19917;-66
2022/08/08 08:48:32;;;;;;;1.90;0.65;;;;;;;-140.72;0.00;52098.69;4993943;28;20030;-65
2022/08/08 08:51:00;;;;;;;2.72;0.75;;;;;;;-140.72;0.00;52133.16;4998240;28;20026;-66
2022/08/08 08:53:26;;;;;;;1.20;0.63;;;;;;;-140.72;0.00;52082.44;4995312;28;20030;-66
2022/08/08 08:55:53;;;;;;;1.88;0.73;;;;;;;-140.72;0.00;52100.72;4995692;28;20026;-66
2022/08/08 08:58:26;;;;;;;1.05;0.50;;;;;;;-140.72;0.00;52045.94;4994980;28;20015;-66
2022/08/08 09:00:53;;;;;;;2.08;0.57;;;;;;;-140.72;0.00;52037.81;4994558;28;20105;-65
2022/08/08 09:03:21;;;;;;;1.05;0.40;;;;;;;-140.72;0.00;52041.88;4993786;28;20065;-66
2022/08/08 09:05:48;;;;;;;2.45;0.73;;;;;;;-140.72;0.00;52021.56;4995418;28;20022;-66
2022/08/08 09:08:15;;;;;;;0.82;0.40;;;;;;;-140.72;0.00;52007.38;4995142;28;20035;-65
2022/08/08 09:10:42;;;;;;;1.67;0.60;;;;;;;-140.72;0.00;51970.84;4995915;28;20363;-66
2022/08/08 09:13:09;;;;;;;0.40;0.20;;;;;;;-140.72;0.00;51899.84;5006689;28;20038;-65
2022/08/08 09:15:34;;;;;;;2.78;0.43;;;;;;;-140.72;0.00;51944.47;4995488;28;20065;-66
2022/08/08 09:17:59;;;;;;;1.17;0.47;;;;;;;-140.72;0.00;51962.75;4993404;28;20049;-66
2022/08/08 09:20:26;;;;;;;0.43;0.20;;;;;;;-140.72;0.00;51958.69;4995402;28;20513;-65
2022/08/08 09:22:52;;;;;;;2.92;0.57;;;;;;;-140.72;0.00;51976.94;4993888;28;20050;-66
2022/08/08 09:25:19;;;;;;;1.33;0.52;;;;;;;-140.72;0.00;52066.22;4994387;28;20109;-66
2022/08/08 09:27:45;;;;;;;1.42;0.43;;;;;;;-140.72;0.00;52033.75;4993668;28;20037;-66
2022/08/08 09:30:13;;;;;;;1.85;0.57;;;;;;;-140.72;0.00;52106.78;4995079;28;20030;-65
2022/08/08 09:32:49;;;;;;;0.88;0.35;;;;;;;-140.72;0.00;52110.84;4994430;28;20037;-66
2022/08/08 09:35:19;;;;;;;1.10;0.50;;;;;;;-140.72;0.00;52104.75;4994849;28;20048;-66
2022/08/08 09:37:52;;;;;;;0.68;0.40;;;;;;;-140.72;0.00;52159.56;4994791;28;20617;-65
2022/08/08 09:40:23;;;;;;;1.60;0.40;;;;;;;-140.72;0.00;52137.22;4994687;28;20030;-65
2022/08/08 09:43:19;;;;;;;1.55;0.65;;;;;;;-140.72;0.00;52175.78;4988807;28;20030;-66
2022/08/08 09:45:57;;;;;;;1.42;0.55;;;;;;;-140.72;0.00;52169.69;5005384;28;20114;-65
2022/08/08 09:48:23;;;;;;;1.20;0.60;;;;;;;-140.72;0.00;52173.75;4994625;28;20509;-65
2022/08/08 09:50:50;;;;;;;2.38;0.60;;;;;;;-140.72;0.00;52194.03;4994661;28;20121;-65
2022/08/08 09:53:19;;;;;;;1.52;0.68;;;;;;;-140.72;0.00;52175.78;4994885;28;20022;-65
2022/08/08 09:55:45;;;;;;;3.03;1.20;;;;;;;-140.72;0.00;52139.25;4994723;28;20466;-65
2022/08/08 09:58:19;;;;;;;0.80;0.50;;;;;;;-140.72;0.00;52218.38;4991279;28;20034;-66
2022/08/08 10:00:46;;;;;;;1.67;0.60;;;;;;;-140.72;0.00;52173.75;4994273;28;20036;-65
2022/08/08 10:03:17;;;;;;;1.63;0.65;;;;;;;-140.72;0.00;52155.50;4991555;28;20074;-65
2022/08/08 10:05:44;;;;;;;1.55;0.63;;;;;;;-140.72;0.00;52108.81;4994905;28;20053;-65
2022/08/08 10:08:10;;;;;;;3.15;0.70;;;;;;;-140.72;0.00;52163.59;4988836;28;20498;-65
2022/08/08 10:10:38;;;;;;;3.35;0.60;;;;;;;-140.72;0.00;52151.44;4994897;28;20529;-65
2022/08/08 10:13:21;;;;;;;0.98;0.43;;;;;;;-140.72;0.00;52151.44;4993982;28;20109;-65
2022/08/08 10:15:52;;;;;;;2.40;0.70;;;;;;;-140.72;0.00;52167.66;5001745;28;20500;-68
2022/08/08 10:18:25;;;;;;;2.22;0.70;;;;;;;-140.72;0.00;52127.09;5001170;28;20034;-69
2022/08/08 10:20:53;;;;;;;1.65;0.68;;;;;;;-140.72;0.00;52175.78;5001750;28;20039;-68
2022/08/08 10:23:38;;;;;;;1.40;0.50;;;;;;;-140.72;0.00;52212.31;4995846;28;20036;-71
2022/08/08 10:26:04;;;;;;;2.28;0.70;;;;;;;-140.72;0.00;52155.50;5003249;28;20121;-72
2022/08/08 10:28:31;;;;;;;1.10;0.60;;;;;;;-140.72;0.00;52019.56;4996714;28;20053;-74
2022/08/08 10:30:59;;;;;;;1.00;0.50;;;;;;;-140.72;0.00;51995.19;4994902;28;20463;-71
2022/08/08 10:33:32;;;;;;;0.70;0.32;;;;;;;-140.72;0.00;52072.31;4993808;28;20394;-72
2022/08/08 10:36:03;;;;;;;3.58;0.30;;;;;;;-140.72;0.00;52082.44;5001890;28;20030;-71
2022/08/08 10:38:30;;;;;;;1.23;0.43;;;;;;;-140.72;0.00;52094.63;5006661;28;20022;-72
2022/08/08 10:41:02;;;;;;;2.28;0.60;;;;;;;-140.72;0.00;52102.75;4995426;28;20165;-72
2022/08/08 10:43:40;;;;;;;0.95;0.50;;;;;;;-140.72;0.00;52017.53;4993950;28;20022;-73
2022/08/08 10:46:24;;;;;;;1.27;0.45;;;;;;;-140.72;0.00;51997.22;4993189;28;20062;-73
2022/08/08 10:48:55;;;;;;;1.05;0.57;;;;;;;-140.72;0.00;51877.53;5010218;28;20022;-73
2022/08/08 10:51:22;;;;;;;3.13;0.60;;;;;;;-140.72;0.00;51968.81;4992918;28;20026;-76
2022/08/08 10:53:51;;;;;;;1.50;0.80;;;;;;;-140.72;0.00;51993.19;4994509;28;20496;-71
2022/08/08 10:56:17;;;;;;;1.35;0.50;;;;;;;-140.72;0.00;52037.81;4994620;28;20128;-71
2022/08/08 10:58:43;;;;;;;0.80;0.38;;;;;;;-140.72;0.00;52062.16;4999717;28;20026;-71
2022/08/08 11:01:10;;;;;;;0.80;0.40;;;;;;;-140.72;0.00;52074.34;4996074;28;20030;-71
2022/08/08 11:03:44;;;;;;;3.40;0.60;;;;;;;-140.72;0.00;52070.28;4997434;28;20045;-71
2022/08/08 11:06:10;;;;;;;1.48;0.73;;;;;;;-140.72;0.00;52070.28;4993021;28;20505;-72
2022/08/08 11:08:35;;;;;;;1.25;0.52;;;;;;;-140.72;0.00;52019.56;4995674;28;20030;-71
2022/08/08 11:11:10;;;;;;;3.10;0.60;;;;;;;-140.72;0.00;51871.44;4996279;28;20565;-71
2022/08/08 11:13:44;;;;;;;2.85;0.40;;;;;;;-140.72;0.00;51920.13;5010901;28;20085;-71
2022/08/08 11:16:32;;;;;;;0.77;0.22;;;;;;;-140.72;0.00;51932.31;4994312;28;20034;-71
2022/08/08 11:19:00;;;;;;;0.98;0.47;;;;;;;-140.72;0.00;52025.63;5008323;28;20442;-72
2022/08/08 11:21:29;;;;;;;0.95;0.40;;;;;;;-140.72;0.00;52076.34;4994962;28;20132;-71
2022/08/08 11:23:56;;;;;;;;;;;;;;;-140.72;0.00;52062.16;5011029;28;20081;-71
2022/08/08 11:26:21;;;;;;;0.93;0.50;;;;;;;-140.72;0.00;52049.97;4994110;28;20258;-72
2022/08/08 11:28:50;;;;;;;3.08;0.60;;;;;;;-140.72;0.00;51891.72;4992950;28;20027;-72
2022/08/08 11:31:15;;;;;;;1.42;0.40;;;;;;;-140.72;0.00;51830.88;4995854;28;20495;-72
2022/08/08 11:33:51;;;;;;;0.95;0.38;;;;;;;-140.72;0.00;51786.22;4993548;28;20054;-73
2022/08/08 11:36:17;;;;;;;0.70;0.40;;;;;;;-140.72;0.00;51719.28;5011937;28;20030;-72
2022/08/08 11:38:45;;;;;;;1.13;0.28;;;;;;;-140.72;0.00;51656.38;4989447;28;20018;-70
2022/08/08 11:41:11;;;;;;;1.13;0.28;;;;;;;-140.72;0.00;51664.50;4996796;28;20036;-71
2022/08/08 11:43:38;;;;;;;0.90;0.30;;;;;;;-140.72;0.00;51690.88;4995953;28;20053;-72
2022/08/08 11:46:05;;;;;;;1.95;0.52;;;;;;;-140.72;0.00;51810.56;4988110;28;20026;-74